createdAt,value
2023-03-29T00:07:40.898Z,12.57
2023-03-29T00:27:44.176Z,14.51
2023-03-29T00:37:45.733Z,12.52
2023-03-29T00:47:45.382Z,11.95
2023-03-29T00:57:54.433Z,9.88
2023-03-29T01:08:03.292Z,11
2023-03-29T01:18:12.432Z,13.63
2023-03-29T01:28:21.729Z,12.15
2023-03-29T01:38:30.980Z,11.68
2023-03-29T01:48:42.573Z,10.17
2023-03-29T01:58:44.913Z,14
2023-03-29T02:08:47.065Z,13.24
2023-03-29T02:18:57.721Z,15.3
2023-03-29T02:29:07.055Z,15.29
2023-03-29T02:39:06.452Z,14.05
2023-03-29T02:49:18.653Z,15.53
2023-03-29T02:59:18.901Z,14.22
2023-03-29T03:09:27.806Z,15.68
2023-03-29T03:19:36.634Z,15.44
2023-03-29T03:29:45.501Z,26.57
2023-03-29T03:39:54.270Z,43.07
2023-03-29T03:50:03.156Z,45.68
2023-03-29T04:00:11.929Z,44
2023-03-29T04:10:20.801Z,26.3
2023-03-29T04:20:29.550Z,21.52
2023-03-29T04:30:38.463Z,24.28
2023-03-29T04:40:54.372Z,17.81
2023-03-29T04:50:53.485Z,19.18
2023-03-29T05:01:03.286Z,24.72
2023-03-29T05:11:12.190Z,29.31
2023-03-29T05:21:21.265Z,36.42
2023-03-29T05:31:30.233Z,27.42
2023-03-29T05:41:39.431Z,28.98
2023-03-29T05:51:54.166Z,35.34
2023-03-29T06:01:53.507Z,29.59
2023-03-29T06:12:04.655Z,33.29
2023-03-29T06:22:09.291Z,53.82
2023-03-29T06:32:11.288Z,39.88
2023-03-29T06:42:20.439Z,41.1
2023-03-29T07:02:18.045Z,45.37
2023-03-29T07:12:21.183Z,55.22
2023-03-29T07:22:21.402Z,48.31
2023-03-29T07:32:21.520Z,40.63
2023-03-29T07:42:30.580Z,26.61
2023-03-29T07:52:39.788Z,17.46
2023-03-29T08:02:50.425Z,18.3
2023-03-29T08:12:50.525Z,23.36
2023-03-29T08:22:49.591Z,19.68
2023-03-29T08:32:58.715Z,21.77
2023-03-29T08:43:07.611Z,20.51
2023-03-29T08:53:17.592Z,22.16
2023-03-29T09:03:27.872Z,15.33
2023-03-29T09:13:26.865Z,11.86
2023-03-29T09:23:36.079Z,17.01
2023-03-29T09:33:49.515Z,6.6
2023-03-29T09:43:51.135Z,5.98
2023-03-29T09:53:50.248Z,7.91
2023-03-29T10:04:00.733Z,5.3
2023-03-29T10:14:02.846Z,6.53
2023-03-29T10:24:04.675Z,8.49
2023-03-29T10:34:07.520Z,12.73
2023-03-29T10:44:16.639Z,10.71
2023-03-29T10:54:26.065Z,12.17
2023-03-29T11:04:27.749Z,11.65
2023-03-29T11:14:37.783Z,9.51
2023-03-29T11:24:36.869Z,12.94
2023-03-29T11:34:45.894Z,14.78
2023-03-29T11:44:55.668Z,13.23
2023-03-29T11:55:05.869Z,9.59
2023-03-29T12:05:11.170Z,12.07
2023-03-29T12:15:10.423Z,12.14
2023-03-29T12:25:20.240Z,12.55
2023-03-29T12:35:27.310Z,12.3
2023-03-29T12:45:39.409Z,10.64
2023-03-29T12:55:40.897Z,12.07
2023-03-29T13:05:45.262Z,14.79
2023-03-29T13:15:44.690Z,15.97
2023-03-29T13:25:54.146Z,14.98
2023-03-29T13:36:04.660Z,11.9
2023-03-29T13:46:03.650Z,14.28
2023-03-29T13:56:12.488Z,11.66
2023-03-29T14:06:25.684Z,9.11
2023-03-29T14:16:24.685Z,8.82
2023-03-29T14:26:33.974Z,10.06
2023-03-29T14:36:44.404Z,7.57
2023-03-29T14:46:45.549Z,9.9
2023-03-29T14:56:51.022Z,8.54
2023-03-29T15:07:01.363Z,9.31
2023-03-29T15:17:01.544Z,9.3
2023-03-29T15:27:04.676Z,9.57
2023-03-29T15:37:03.828Z,12.77
2023-03-29T15:47:13.394Z,11.87
2023-03-29T15:57:14.636Z,9.3
2023-03-29T16:07:26.840Z,12.56
2023-03-29T16:17:27.371Z,9.29
2023-03-29T16:27:28.186Z,7.04
2023-03-29T16:37:27.267Z,8.99
2023-03-29T16:47:36.575Z,7.29
2023-03-29T16:57:45.904Z,7.4
2023-03-29T17:07:58.501Z,9.08
2023-03-29T17:17:59.435Z,10.5
2023-03-29T17:28:09.183Z,5.2
2023-03-29T17:38:09.688Z,6.09
2023-03-29T17:48:19.649Z,5.61
2023-03-29T17:58:21.420Z,7.02
2023-03-29T18:08:29.813Z,7.29
2023-03-29T18:18:32.287Z,6.83
2023-03-29T18:28:39.517Z,6.64
2023-03-29T18:38:39.950Z,5.14
2023-03-29T18:48:40.257Z,4.13
2023-03-29T18:58:39.158Z,4.54
2023-03-29T19:08:39.364Z,4.76
2023-03-29T19:18:48.482Z,6.25
2023-03-29T19:28:57.559Z,6.04
2023-03-29T19:38:57.859Z,5.91
2023-03-29T19:49:07.248Z,7.13
2023-03-29T19:59:07.721Z,9.94
2023-03-29T20:09:07.693Z,8.07
2023-03-29T20:19:16.689Z,7.42
2023-03-29T20:49:48.310Z,7.47
2023-03-29T20:59:39.754Z,9.72
2023-03-29T21:09:48.623Z,7.58
2023-03-29T21:19:57.499Z,7.7
2023-03-29T21:30:06.114Z,7.31
2023-03-29T21:40:14.833Z,9.63
2023-03-29T21:50:23.544Z,6.67
2023-03-29T22:00:32.357Z,7.51
2023-03-29T22:10:41.133Z,6.1
2023-03-29T22:20:49.905Z,6.57
2023-03-29T22:30:59.074Z,7.99
2023-03-29T22:41:08.925Z,6.51
2023-03-29T22:51:17.646Z,9.11
2023-03-29T23:01:26.419Z,6.73
2023-03-29T23:11:35.158Z,7.59
2023-03-29T23:21:43.930Z,8.31
2023-03-29T23:31:52.773Z,7.91
2023-03-29T23:42:01.466Z,7.55
2023-03-29T23:52:10.762Z,8.7
